Aérodrome :
LOGIN :

S'inscrire | Disclaimer

   EN    FR    IT 

 










Légende :    VFR   VFR Marginal   IFR   IFR Intensif   IFR Très Intensif
Visi : 
Plafond : 
>= 8 km
>= 3000ft
5 à 8 km
1000 à 3000 ft
1500m à 5 km
500 à 1000 ft
800 à 1500m
200 à 500 ft
< 800m
< 200 ft
Symboles :   Orages  Brouillard  Fortes neiges  Fortes précipitations  Vent > 20 kt
SIGMETs :   Divers  Orages  Givrage  Turbulence  Onde Orograph.  Cendres Volcan.






- Altitude de l'aérodrome : -11 ft
- Code IATA : AMS


EHAM - Amsterdam Schiphol

DERNIER METAR :
  • 151455Z 11007KT 080V140 CAVOK 24/14 Q1009 NOSIG

METARs EXPIRÉS :
  • 151425Z 13008KT 060V170 CAVOK 24/13 Q1009 NOSIG
  • 151355Z 15005KT 090V200 CAVOK 24/12 Q1009 NOSIG
  • 151325Z 15007KT 080V200 9999 FEW046 24/13 Q1010 NOSIG
  • 151255Z 13006KT 100V180 9999 FEW046 24/13 Q1010 NOSIG
  • 151225Z 18007KT 140V220 9999 FEW046 23/12 Q1010 NOSIG
  • 151155Z 18007KT 140V230 9999 FEW042 24/12 Q1011 NOSIG
  • 151125Z 17007KT 120V220 9999 FEW042 23/14 Q1011 NOSIG
  • 151055Z 18006KT 140V220 9999 FEW039 22/13 Q1011 NOSIG
  • 151025Z 16006KT 110V210 9999 FEW039 23/13 Q1011 NOSIG

TAF TAF EHAM
Valide du 15 à 12h jusqu'au 16 à 18h UTC


151057Z 1512/1618 17006KT CAVOK
BECMG 1514/1517 07009KT
TEMPO 1517/1524 6000 SHRA SCT050CB
PROB40
TEMPO 1520/1523 18015G25KT 2500 TSRA BKN030 BKN050CB
BECMG 1522/1601 21015G25KT SCT008 BKN012
BECMG 1603/1606 BKN022
BECMG 1606/1609 22018G30KT
PROB30
TEMPO 1609/1618 6000 SHRA SCT018CB BKN020
BECMG 1615/1618 27011KT SCT008 BKN015



MET'MAP, la Météo Aéronautique d'un coup d'oeil ! - Copyright ORBIFLY Décembre 2007 - Disclaimer

ORBIFLY MET'MAP TEAM :

Programmation & Développement : Alexandra Zaïnal
Sur une idée originale de : Baudouin d'Aumeries
Soutien technique & logistique : Manuel Goepfert
Assistance : Marc-Olivier Méhu




SOURCES & CREDITS :

   NOAA